sensor_id;sensor_type;location;lat;lon;timestamp;P1;durP1;ratioP1;P2;durP2;ratioP2
52186;SDS011;38161;53.020;6.598;2023-12-29T00:01:44;8.20;;;2.20;;
52186;SDS011;38161;53.020;6.598;2023-12-29T00:04:10;9.20;;;2.53;;
52186;SDS011;38161;53.020;6.598;2023-12-29T00:06:39;10.60;;;2.40;;
52186;SDS011;38161;53.020;6.598;2023-12-29T00:09:05;6.80;;;2.30;;
52186;SDS011;38161;53.020;6.598;2023-12-29T00:11:34;7.97;;;2.05;;
52186;SDS011;38161;53.020;6.598;2023-12-29T00:14:00;11.63;;;2.65;;
52186;SDS011;38161;53.020;6.598;2023-12-29T00:16:29;8.77;;;2.30;;
52186;SDS011;38161;53.020;6.598;2023-12-29T00:18:55;9.05;;;2.33;;
52186;SDS011;38161;53.020;6.598;2023-12-29T00:21:20;9.20;;;2.50;;
52186;SDS011;38161;53.020;6.598;2023-12-29T00:23:46;10.70;;;2.30;;
52186;SDS011;38161;53.020;6.598;2023-12-29T00:26:16;10.52;;;2.38;;
52186;SDS011;38161;53.020;6.598;2023-12-29T00:28:42;8.48;;;2.08;;
52186;SDS011;38161;53.020;6.598;2023-12-29T00:31:09;12.80;;;2.40;;
52186;SDS011;38161;53.020;6.598;2023-12-29T00:33:42;10.77;;;2.17;;
52186;SDS011;38161;53.020;6.598;2023-12-29T00:36:14;9.00;;;2.22;;
52186;SDS011;38161;53.020;6.598;2023-12-29T00:38:43;9.68;;;2.13;;
52186;SDS011;38161;53.020;6.598;2023-12-29T00:41:09;7.43;;;2.05;;
52186;SDS011;38161;53.020;6.598;2023-12-29T00:43:35;6.28;;;2.13;;
52186;SDS011;38161;53.020;6.598;2023-12-29T00:46:01;6.25;;;1.75;;
52186;SDS011;38161;53.020;6.598;2023-12-29T00:48:28;7.90;;;2.50;;
52186;SDS011;38161;53.020;6.598;2023-12-29T00:50:54;9.30;;;2.35;;
52186;SDS011;38161;53.020;6.598;2023-12-29T00:53:20;6.15;;;1.73;;
52186;SDS011;38161;53.020;6.598;2023-12-29T00:55:46;5.72;;;1.90;;
52186;SDS011;38161;53.020;6.598;2023-12-29T00:58:12;8.82;;;1.73;;
52186;SDS011;38161;53.020;6.598;2023-12-29T01:00:38;7.53;;;1.98;;
52186;SDS011;38161;53.020;6.598;2023-12-29T01:03:04;7.15;;;1.98;;
52186;SDS011;38161;53.020;6.598;2023-12-29T01:05:30;6.97;;;2.40;;
52186;SDS011;38161;53.020;6.598;2023-12-29T01:07:56;11.05;;;2.38;;
52186;SDS011;38161;53.020;6.598;2023-12-29T01:10:21;10.55;;;2.72;;
52186;SDS011;38161;53.020;6.598;2023-12-29T01:12:47;10.50;;;2.78;;
52186;SDS011;38161;53.020;6.598;2023-12-29T01:15:13;12.43;;;2.80;;
52186;SDS011;38161;53.020;6.598;2023-12-29T01:17:39;11.27;;;2.50;;
52186;SDS011;38161;53.020;6.598;2023-12-29T01:20:05;5.55;;;2.22;;
52186;SDS011;38161;53.020;6.598;2023-12-29T01:22:31;9.40;;;2.40;;
52186;SDS011;38161;53.020;6.598;2023-12-29T01:24:58;12.53;;;2.60;;
52186;SDS011;38161;53.020;6.598;2023-12-29T01:27:25;12.60;;;2.92;;
52186;SDS011;38161;53.020;6.598;2023-12-29T01:29:51;6.80;;;2.72;;
52186;SDS011;38161;53.020;6.598;2023-12-29T01:34:46;9.68;;;2.42;;
52186;SDS011;38161;53.020;6.598;2023-12-29T01:37:12;14.52;;;3.42;;
52186;SDS011;38161;53.020;6.598;2023-12-29T01:39:38;10.60;;;2.65;;
52186;SDS011;38161;53.020;6.598;2023-12-29T01:42:05;6.90;;;2.53;;
52186;SDS011;38161;53.020;6.598;2023-12-29T01:44:31;11.40;;;2.78;;
52186;SDS011;38161;53.020;6.598;2023-12-29T01:47:01;10.98;;;2.97;;
52186;SDS011;38161;53.020;6.598;2023-12-29T01:49:28;10.82;;;2.88;;
52186;SDS011;38161;53.020;6.598;2023-12-29T01:51:58;8.18;;;2.67;;
52186;SDS011;38161;53.020;6.598;2023-12-29T01:54:26;10.00;;;2.83;;
52186;SDS011;38161;53.020;6.598;2023-12-29T01:56:56;10.60;;;2.90;;
52186;SDS011;38161;53.020;6.598;2023-12-29T01:59:25;13.40;;;3.15;;
52186;SDS011;38161;53.020;6.598;2023-12-29T02:01:52;16.85;;;3.38;;
52186;SDS011;38161;53.020;6.598;2023-12-29T02:04:19;16.63;;;3.00;;
52186;SDS011;38161;53.020;6.598;2023-12-29T02:06:45;8.52;;;2.72;;
52186;SDS011;38161;53.020;6.598;2023-12-29T02:09:11;9.87;;;2.80;;
52186;SDS011;38161;53.020;6.598;2023-12-29T02:11:38;11.77;;;2.40;;
52186;SDS011;38161;53.020;6.598;2023-12-29T02:14:03;4.78;;;1.90;;
52186;SDS011;38161;53.020;6.598;2023-12-29T02:19:24;5.93;;;1.55;;
52186;SDS011;38161;53.020;6.598;2023-12-29T02:22:10;3.75;;;1.17;;
52186;SDS011;38161;53.020;6.598;2023-12-29T02:24:37;5.10;;;1.45;;
52186;SDS011;38161;53.020;6.598;2023-12-29T02:27:12;3.78;;;1.13;;
52186;SDS011;38161;53.020;6.598;2023-12-29T02:30:28;4.32;;;1.25;;
52186;SDS011;38161;53.020;6.598;2023-12-29T02:35:25;10.38;;;1.73;;
52186;SDS011;38161;53.020;6.598;2023-12-29T02:37:53;10.63;;;1.60;;
52186;SDS011;38161;53.020;6.598;2023-12-29T02:40:23;11.07;;;1.65;;
52186;SDS011;38161;53.020;6.598;2023-12-29T02:42:50;13.57;;;2.35;;
52186;SDS011;38161;53.020;6.598;2023-12-29T02:45:16;9.07;;;2.50;;
52186;SDS011;38161;53.020;6.598;2023-12-29T02:50:09;8.93;;;3.58;;
52186;SDS011;38161;53.020;6.598;2023-12-29T02:52:35;13.02;;;3.45;;
52186;SDS011;38161;53.020;6.598;2023-12-29T02:55:04;11.35;;;3.22;;
52186;SDS011;38161;53.020;6.598;2023-12-29T02:57:29;14.32;;;3.38;;
52186;SDS011;38161;53.020;6.598;2023-12-29T02:59:55;11.07;;;2.40;;
52186;SDS011;38161;53.020;6.598;2023-12-29T03:02:22;12.90;;;2.80;;
52186;SDS011;38161;53.020;6.598;2023-12-29T03:04:48;11.52;;;2.55;;
52186;SDS011;38161;53.020;6.598;2023-12-29T03:07:14;11.13;;;2.58;;
52186;SDS011;38161;53.020;6.598;2023-12-29T03:09:39;8.63;;;2.77;;
52186;SDS011;38161;53.020;6.598;2023-12-29T03:12:05;14.25;;;3.03;;
52186;SDS011;38161;53.020;6.598;2023-12-29T03:14:31;13.32;;;3.13;;
52186;SDS011;38161;53.020;6.598;2023-12-29T03:16:58;13.27;;;3.30;;
52186;SDS011;38161;53.020;6.598;2023-12-29T03:19:24;15.48;;;3.78;;
52186;SDS011;38161;53.020;6.598;2023-12-29T03:21:50;13.05;;;3.05;;
52186;SDS011;38161;53.020;6.598;2023-12-29T03:24:16;10.75;;;3.55;;
52186;SDS011;38161;53.020;6.598;2023-12-29T03:26:41;15.73;;;2.85;;
52186;SDS011;38161;53.020;6.598;2023-12-29T03:29:07;11.82;;;3.38;;
52186;SDS011;38161;53.020;6.598;2023-12-29T03:31:34;11.65;;;2.85;;
52186;SDS011;38161;53.020;6.598;2023-12-29T03:33:59;16.80;;;3.65;;
52186;SDS011;38161;53.020;6.598;2023-12-29T03:36:25;20.67;;;3.92;;
52186;SDS011;38161;53.020;6.598;2023-12-29T03:38:51;17.07;;;3.43;;
52186;SDS011;38161;53.020;6.598;2023-12-29T03:41:17;13.97;;;3.47;;
52186;SDS011;38161;53.020;6.598;2023-12-29T03:43:43;14.18;;;3.33;;
52186;SDS011;38161;53.020;6.598;2023-12-29T03:46:19;14.10;;;3.70;;
52186;SDS011;38161;53.020;6.598;2023-12-29T03:48:46;16.90;;;3.90;;
52186;SDS011;38161;53.020;6.598;2023-12-29T03:51:12;14.65;;;4.78;;
52186;SDS011;38161;53.020;6.598;2023-12-29T03:56:05;16.15;;;3.22;;
52186;SDS011;38161;53.020;6.598;2023-12-29T03:58:34;16.27;;;3.42;;
52186;SDS011;38161;53.020;6.598;2023-12-29T04:01:01;15.38;;;3.53;;
52186;SDS011;38161;53.020;6.598;2023-12-29T04:03:27;15.10;;;3.42;;
52186;SDS011;38161;53.020;6.598;2023-12-29T04:05:53;12.20;;;3.22;;
52186;SDS011;38161;53.020;6.598;2023-12-29T04:08:18;16.70;;;3.83;;
52186;SDS011;38161;53.020;6.598;2023-12-29T04:10:44;14.52;;;3.70;;
52186;SDS011;38161;53.020;6.598;2023-12-29T04:13:10;19.75;;;3.40;;
52186;SDS011;38161;53.020;6.598;2023-12-29T04:15:36;18.57;;;3.73;;
52186;SDS011;38161;53.020;6.598;2023-12-29T04:18:02;11.27;;;3.30;;
52186;SDS011;38161;53.020;6.598;2023-12-29T04:20:27;18.85;;;3.65;;
52186;SDS011;38161;53.020;6.598;2023-12-29T04:22:54;16.73;;;3.47;;
52186;SDS011;38161;53.020;6.598;2023-12-29T04:25:20;19.02;;;3.70;;
52186;SDS011;38161;53.020;6.598;2023-12-29T04:27:46;16.23;;;3.23;;
52186;SDS011;38161;53.020;6.598;2023-12-29T04:30:11;13.90;;;3.33;;
52186;SDS011;38161;53.020;6.598;2023-12-29T04:32:37;24.15;;;4.05;;
52186;SDS011;38161;53.020;6.598;2023-12-29T04:35:03;17.63;;;3.03;;
52186;SDS011;38161;53.020;6.598;2023-12-29T04:37:30;22.80;;;3.67;;
52186;SDS011;38161;53.020;6.598;2023-12-29T04:39:58;18.93;;;4.13;;
52186;SDS011;38161;53.020;6.598;2023-12-29T04:42:24;16.42;;;3.20;;
52186;SDS011;38161;53.020;6.598;2023-12-29T04:44:49;11.85;;;3.25;;
52186;SDS011;38161;53.020;6.598;2023-12-29T04:47:15;12.93;;;2.80;;
52186;SDS011;38161;53.020;6.598;2023-12-29T04:49:41;16.00;;;3.38;;
52186;SDS011;38161;53.020;6.598;2023-12-29T04:52:07;12.95;;;3.45;;
52186;SDS011;38161;53.020;6.598;2023-12-29T04:54:33;15.45;;;3.55;;
52186;SDS011;38161;53.020;6.598;2023-12-29T04:56:59;17.10;;;4.10;;
52186;SDS011;38161;53.020;6.598;2023-12-29T04:59:25;17.03;;;3.43;;
52186;SDS011;38161;53.020;6.598;2023-12-29T05:01:50;12.33;;;2.83;;
52186;SDS011;38161;53.020;6.598;2023-12-29T05:04:16;16.63;;;3.65;;
52186;SDS011;38161;53.020;6.598;2023-12-29T05:06:42;18.95;;;3.40;;
52186;SDS011;38161;53.020;6.598;2023-12-29T05:09:08;18.30;;;3.43;;
52186;SDS011;38161;53.020;6.598;2023-12-29T05:11:33;18.90;;;4.20;;
52186;SDS011;38161;53.020;6.598;2023-12-29T05:13:59;19.67;;;3.37;;
52186;SDS011;38161;53.020;6.598;2023-12-29T05:16:25;16.83;;;2.97;;
52186;SDS011;38161;53.020;6.598;2023-12-29T05:18:50;17.17;;;3.55;;
52186;SDS011;38161;53.020;6.598;2023-12-29T05:21:16;25.85;;;4.57;;
52186;SDS011;38161;53.020;6.598;2023-12-29T05:23:43;23.15;;;3.47;;
52186;SDS011;38161;53.020;6.598;2023-12-29T05:26:10;15.30;;;3.17;;
52186;SDS011;38161;53.020;6.598;2023-12-29T05:28:37;24.60;;;3.45;;
52186;SDS011;38161;53.020;6.598;2023-12-29T05:31:03;21.20;;;4.07;;
52186;SDS011;38161;53.020;6.598;2023-12-29T05:33:32;18.15;;;3.85;;
52186;SDS011;38161;53.020;6.598;2023-12-29T05:35:58;13.98;;;3.50;;
52186;SDS011;38161;53.020;6.598;2023-12-29T05:38:30;17.30;;;3.58;;
52186;SDS011;38161;53.020;6.598;2023-12-29T05:40:56;17.50;;;3.17;;
52186;SDS011;38161;53.020;6.598;2023-12-29T05:43:22;18.55;;;3.58;;
52186;SDS011;38161;53.020;6.598;2023-12-29T05:45:48;15.35;;;3.40;;
52186;SDS011;38161;53.020;6.598;2023-12-29T05:48:14;16.80;;;3.22;;
52186;SDS011;38161;53.020;6.598;2023-12-29T05:50:40;16.17;;;3.93;;
52186;SDS011;38161;53.020;6.598;2023-12-29T05:53:05;13.55;;;4.07;;
52186;SDS011;38161;53.020;6.598;2023-12-29T05:55:32;14.65;;;2.83;;
52186;SDS011;38161;53.020;6.598;2023-12-29T05:57:57;15.27;;;3.10;;
52186;SDS011;38161;53.020;6.598;2023-12-29T06:00:23;16.00;;;2.60;;
52186;SDS011;38161;53.020;6.598;2023-12-29T06:02:49;13.85;;;2.85;;
52186;SDS011;38161;53.020;6.598;2023-12-29T06:05:15;16.05;;;2.83;;
52186;SDS011;38161;53.020;6.598;2023-12-29T06:07:41;17.25;;;3.08;;
52186;SDS011;38161;53.020;6.598;2023-12-29T06:10:07;19.40;;;3.10;;
52186;SDS011;38161;53.020;6.598;2023-12-29T06:12:34;15.35;;;2.72;;
52186;SDS011;38161;53.020;6.598;2023-12-29T06:15:00;18.10;;;3.33;;
52186;SDS011;38161;53.020;6.598;2023-12-29T06:17:26;16.88;;;3.35;;
52186;SDS011;38161;53.020;6.598;2023-12-29T06:19:52;10.65;;;2.45;;
52186;SDS011;38161;53.020;6.598;2023-12-29T06:22:18;13.05;;;3.20;;
52186;SDS011;38161;53.020;6.598;2023-12-29T06:24:43;13.25;;;2.78;;
52186;SDS011;38161;53.020;6.598;2023-12-29T06:27:10;18.85;;;2.75;;
52186;SDS011;38161;53.020;6.598;2023-12-29T06:29:37;24.83;;;3.78;;
52186;SDS011;38161;53.020;6.598;2023-12-29T06:32:03;17.75;;;2.83;;
52186;SDS011;38161;53.020;6.598;2023-12-29T06:34:29;13.40;;;2.65;;
52186;SDS011;38161;53.020;6.598;2023-12-29T06:36:55;18.25;;;3.75;;
52186;SDS011;38161;53.020;6.598;2023-12-29T06:39:21;15.48;;;3.03;;
52186;SDS011;38161;53.020;6.598;2023-12-29T06:41:47;17.85;;;3.35;;
52186;SDS011;38161;53.020;6.598;2023-12-29T06:44:13;19.58;;;4.55;;
52186;SDS011;38161;53.020;6.598;2023-12-29T06:46:39;13.80;;;3.47;;
52186;SDS011;38161;53.020;6.598;2023-12-29T06:49:08;16.73;;;3.28;;
52186;SDS011;38161;53.020;6.598;2023-12-29T06:51:34;18.77;;;3.53;;
52186;SDS011;38161;53.020;6.598;2023-12-29T06:54:06;26.30;;;5.55;;
52186;SDS011;38161;53.020;6.598;2023-12-29T06:56:32;16.38;;;3.42;;
52186;SDS011;38161;53.020;6.598;2023-12-29T06:58:58;13.75;;;3.60;;
52186;SDS011;38161;53.020;6.598;2023-12-29T07:01:23;22.93;;;3.47;;
52186;SDS011;38161;53.020;6.598;2023-12-29T07:03:49;19.50;;;4.00;;
52186;SDS011;38161;53.020;6.598;2023-12-29T07:06:15;16.48;;;3.50;;
52186;SDS011;38161;53.020;6.598;2023-12-29T07:08:41;20.08;;;3.67;;
52186;SDS011;38161;53.020;6.598;2023-12-29T07:11:10;21.70;;;4.05;;
52186;SDS011;38161;53.020;6.598;2023-12-29T07:13:39;23.00;;;4.05;;
52186;SDS011;38161;53.020;6.598;2023-12-29T07:16:05;24.50;;;4.43;;
52186;SDS011;38161;53.020;6.598;2023-12-29T07:18:31;17.98;;;4.10;;
52186;SDS011;38161;53.020;6.598;2023-12-29T07:20:57;21.07;;;3.60;;
52186;SDS011;38161;53.020;6.598;2023-12-29T07:23:23;18.33;;;3.25;;
52186;SDS011;38161;53.020;6.598;2023-12-29T07:25:49;20.67;;;4.30;;
52186;SDS011;38161;53.020;6.598;2023-12-29T07:28:15;24.40;;;4.57;;
52186;SDS011;38161;53.020;6.598;2023-12-29T07:30:40;15.32;;;3.50;;
52186;SDS011;38161;53.020;6.598;2023-12-29T07:33:06;17.35;;;3.85;;
52186;SDS011;38161;53.020;6.598;2023-12-29T07:35:32;17.98;;;4.63;;
52186;SDS011;38161;53.020;6.598;2023-12-29T07:37:58;19.20;;;3.70;;
52186;SDS011;38161;53.020;6.598;2023-12-29T07:40:24;24.92;;;3.78;;
52186;SDS011;38161;53.020;6.598;2023-12-29T07:42:51;19.88;;;3.58;;
52186;SDS011;38161;53.020;6.598;2023-12-29T07:45:17;26.58;;;3.83;;
52186;SDS011;38161;53.020;6.598;2023-12-29T07:47:43;18.55;;;3.85;;
52186;SDS011;38161;53.020;6.598;2023-12-29T07:50:08;20.95;;;3.78;;
52186;SDS011;38161;53.020;6.598;2023-12-29T07:52:34;19.20;;;3.97;;
52186;SDS011;38161;53.020;6.598;2023-12-29T07:55:00;18.27;;;3.83;;
52186;SDS011;38161;53.020;6.598;2023-12-29T07:57:26;20.17;;;4.30;;
52186;SDS011;38161;53.020;6.598;2023-12-29T07:59:52;25.97;;;4.07;;
52186;SDS011;38161;53.020;6.598;2023-12-29T08:02:17;22.80;;;4.45;;
52186;SDS011;38161;53.020;6.598;2023-12-29T08:04:43;31.75;;;5.97;;
52186;SDS011;38161;53.020;6.598;2023-12-29T08:07:11;21.10;;;5.13;;
52186;SDS011;38161;53.020;6.598;2023-12-29T08:09:37;21.20;;;3.90;;
52186;SDS011;38161;53.020;6.598;2023-12-29T08:12:03;22.30;;;4.10;;
52186;SDS011;38161;53.020;6.598;2023-12-29T08:14:29;13.93;;;3.40;;
52186;SDS011;38161;53.020;6.598;2023-12-29T08:16:55;22.42;;;4.28;;
52186;SDS011;38161;53.020;6.598;2023-12-29T08:19:22;14.68;;;3.17;;
52186;SDS011;38161;53.020;6.598;2023-12-29T08:21:48;22.92;;;3.30;;
52186;SDS011;38161;53.020;6.598;2023-12-29T08:24:17;17.42;;;3.40;;
52186;SDS011;38161;53.020;6.598;2023-12-29T08:26:47;18.88;;;3.47;;
52186;SDS011;38161;53.020;6.598;2023-12-29T08:29:14;20.00;;;3.38;;
52186;SDS011;38161;53.020;6.598;2023-12-29T08:34:06;15.68;;;3.00;;
52186;SDS011;38161;53.020;6.598;2023-12-29T08:36:33;17.23;;;3.40;;
52186;SDS011;38161;53.020;6.598;2023-12-29T08:38:59;17.00;;;3.65;;
52186;SDS011;38161;53.020;6.598;2023-12-29T08:41:24;21.10;;;3.60;;
52186;SDS011;38161;53.020;6.598;2023-12-29T08:43:50;16.03;;;3.07;;
52186;SDS011;38161;53.020;6.598;2023-12-29T08:46:16;17.33;;;3.37;;
52186;SDS011;38161;53.020;6.598;2023-12-29T08:48:41;16.67;;;3.27;;
52186;SDS011;38161;53.020;6.598;2023-12-29T08:51:07;14.77;;;3.10;;
52186;SDS011;38161;53.020;6.598;2023-12-29T08:53:33;19.88;;;3.72;;
52186;SDS011;38161;53.020;6.598;2023-12-29T08:56:03;16.35;;;3.80;;
52186;SDS011;38161;53.020;6.598;2023-12-29T08:58:31;23.05;;;3.58;;
52186;SDS011;38161;53.020;6.598;2023-12-29T09:00:57;16.63;;;3.47;;
52186;SDS011;38161;53.020;6.598;2023-12-29T09:03:23;16.60;;;3.22;;
52186;SDS011;38161;53.020;6.598;2023-12-29T09:05:48;21.17;;;3.80;;
52186;SDS011;38161;53.020;6.598;2023-12-29T09:08:14;12.82;;;3.40;;
52186;SDS011;38161;53.020;6.598;2023-12-29T09:10:40;21.65;;;3.70;;
52186;SDS011;38161;53.020;6.598;2023-12-29T09:13:06;17.00;;;3.43;;
52186;SDS011;38161;53.020;6.598;2023-12-29T09:15:32;10.90;;;3.05;;
52186;SDS011;38161;53.020;6.598;2023-12-29T09:17:59;11.77;;;3.00;;
52186;SDS011;38161;53.020;6.598;2023-12-29T09:20:25;16.55;;;3.03;;
52186;SDS011;38161;53.020;6.598;2023-12-29T09:22:51;12.93;;;2.90;;
52186;SDS011;38161;53.020;6.598;2023-12-29T09:25:17;14.50;;;3.05;;
52186;SDS011;38161;53.020;6.598;2023-12-29T09:27:42;19.08;;;3.65;;
52186;SDS011;38161;53.020;6.598;2023-12-29T09:30:09;14.88;;;2.92;;
52186;SDS011;38161;53.020;6.598;2023-12-29T09:32:35;17.67;;;3.45;;
52186;SDS011;38161;53.020;6.598;2023-12-29T09:35:01;13.17;;;3.17;;
52186;SDS011;38161;53.020;6.598;2023-12-29T09:37:28;13.30;;;2.75;;
52186;SDS011;38161;53.020;6.598;2023-12-29T09:39:54;17.97;;;3.10;;
52186;SDS011;38161;53.020;6.598;2023-12-29T09:42:20;19.58;;;4.18;;
52186;SDS011;38161;53.020;6.598;2023-12-29T09:44:51;17.58;;;3.13;;
52186;SDS011;38161;53.020;6.598;2023-12-29T09:47:24;15.98;;;3.70;;
52186;SDS011;38161;53.020;6.598;2023-12-29T09:49:53;16.13;;;3.40;;
52186;SDS011;38161;53.020;6.598;2023-12-29T09:52:19;17.48;;;3.60;;
52186;SDS011;38161;53.020;6.598;2023-12-29T09:54:51;15.10;;;3.13;;
52186;SDS011;38161;53.020;6.598;2023-12-29T09:57:17;20.63;;;3.80;;
52186;SDS011;38161;53.020;6.598;2023-12-29T09:59:44;22.80;;;3.88;;
52186;SDS011;38161;53.020;6.598;2023-12-29T10:02:19;16.52;;;3.58;;
52186;SDS011;38161;53.020;6.598;2023-12-29T10:04:47;25.15;;;4.43;;
52186;SDS011;38161;53.020;6.598;2023-12-29T10:07:15;14.23;;;3.17;;
52186;SDS011;38161;53.020;6.598;2023-12-29T10:09:47;21.77;;;4.63;;
52186;SDS011;38161;53.020;6.598;2023-12-29T10:12:17;22.38;;;3.80;;
52186;SDS011;38161;53.020;6.598;2023-12-29T10:25:19;24.17;;;4.03;;
52186;SDS011;38161;53.020;6.598;2023-12-29T10:27:47;21.30;;;3.92;;
52186;SDS011;38161;53.020;6.598;2023-12-29T10:30:13;14.07;;;3.53;;
52186;SDS011;38161;53.020;6.598;2023-12-29T10:32:40;16.58;;;3.50;;
52186;SDS011;38161;53.020;6.598;2023-12-29T10:35:09;22.67;;;4.67;;
52186;SDS011;38161;53.020;6.598;2023-12-29T10:37:36;20.10;;;3.85;;
52186;SDS011;38161;53.020;6.598;2023-12-29T10:40:03;15.93;;;3.80;;
52186;SDS011;38161;53.020;6.598;2023-12-29T10:42:30;22.63;;;3.58;;
52186;SDS011;38161;53.020;6.598;2023-12-29T10:45:05;16.73;;;3.40;;
52186;SDS011;38161;53.020;6.598;2023-12-29T10:47:33;17.98;;;3.58;;
52186;SDS011;38161;53.020;6.598;2023-12-29T10:50:03;16.80;;;3.38;;
52186;SDS011;38161;53.020;6.598;2023-12-29T10:52:29;21.42;;;3.88;;
52186;SDS011;38161;53.020;6.598;2023-12-29T10:55:06;15.35;;;3.15;;
52186;SDS011;38161;53.020;6.598;2023-12-29T10:57:34;16.10;;;4.13;;
52186;SDS011;38161;53.020;6.598;2023-12-29T11:00:04;19.30;;;3.30;;
52186;SDS011;38161;53.020;6.598;2023-12-29T11:02:33;16.80;;;3.42;;
52186;SDS011;38161;53.020;6.598;2023-12-29T11:05:03;17.15;;;3.50;;
52186;SDS011;38161;53.020;6.598;2023-12-29T11:07:39;19.98;;;3.35;;
52186;SDS011;38161;53.020;6.598;2023-12-29T11:10:07;15.18;;;3.25;;
52186;SDS011;38161;53.020;6.598;2023-12-29T11:12:34;13.73;;;2.95;;
52186;SDS011;38161;53.020;6.598;2023-12-29T11:15:02;17.50;;;3.10;;
52186;SDS011;38161;53.020;6.598;2023-12-29T11:17:29;21.25;;;2.78;;
52186;SDS011;38161;53.020;6.598;2023-12-29T11:19:59;17.50;;;2.63;;
52186;SDS011;38161;53.020;6.598;2023-12-29T11:22:30;15.05;;;3.17;;
52186;SDS011;38161;53.020;6.598;2023-12-29T11:24:57;18.48;;;3.03;;
52186;SDS011;38161;53.020;6.598;2023-12-29T11:27:27;18.52;;;2.67;;
52186;SDS011;38161;53.020;6.598;2023-12-29T11:30:02;12.65;;;2.67;;
52186;SDS011;38161;53.020;6.598;2023-12-29T11:35:17;15.52;;;3.13;;
52186;SDS011;38161;53.020;6.598;2023-12-29T11:42:57;12.48;;;2.47;;
52186;SDS011;38161;53.020;6.598;2023-12-29T11:45:30;17.63;;;3.42;;
52186;SDS011;38161;53.020;6.598;2023-12-29T11:48:00;16.35;;;2.58;;
52186;SDS011;38161;53.020;6.598;2023-12-29T11:50:30;9.57;;;2.47;;
52186;SDS011;38161;53.020;6.598;2023-12-29T11:52:58;11.75;;;2.40;;
52186;SDS011;38161;53.020;6.598;2023-12-29T11:55:31;13.27;;;2.15;;
52186;SDS011;38161;53.020;6.598;2023-12-29T11:58:00;12.45;;;2.05;;
52186;SDS011;38161;53.020;6.598;2023-12-29T12:00:46;13.20;;;2.72;;
52186;SDS011;38161;53.020;6.598;2023-12-29T12:03:14;9.55;;;2.13;;
52186;SDS011;38161;53.020;6.598;2023-12-29T12:05:51;12.10;;;2.63;;
52186;SDS011;38161;53.020;6.598;2023-12-29T12:08:27;16.50;;;2.53;;
52186;SDS011;38161;53.020;6.598;2023-12-29T12:10:54;14.73;;;2.85;;
52186;SDS011;38161;53.020;6.598;2023-12-29T12:19:11;11.73;;;2.50;;
52186;SDS011;38161;53.020;6.598;2023-12-29T12:21:37;10.43;;;2.28;;
52186;SDS011;38161;53.020;6.598;2023-12-29T12:24:04;13.82;;;2.63;;
52186;SDS011;38161;53.020;6.598;2023-12-29T12:26:30;13.00;;;2.50;;
52186;SDS011;38161;53.020;6.598;2023-12-29T12:31:23;11.43;;;2.38;;
52186;SDS011;38161;53.020;6.598;2023-12-29T12:36:22;10.00;;;2.20;;
52186;SDS011;38161;53.020;6.598;2023-12-29T12:38:55;14.23;;;2.72;;
52186;SDS011;38161;53.020;6.598;2023-12-29T12:41:22;9.90;;;2.90;;
52186;SDS011;38161;53.020;6.598;2023-12-29T12:46:35;12.63;;;1.95;;
52186;SDS011;38161;53.020;6.598;2023-12-29T12:49:22;11.00;;;2.58;;
52186;SDS011;38161;53.020;6.598;2023-12-29T12:51:48;17.15;;;2.90;;
52186;SDS011;38161;53.020;6.598;2023-12-29T12:54:16;11.90;;;2.35;;
52186;SDS011;38161;53.020;6.598;2023-12-29T12:56:44;10.73;;;2.00;;
52186;SDS011;38161;53.020;6.598;2023-12-29T13:01:37;13.60;;;2.58;;
52186;SDS011;38161;53.020;6.598;2023-12-29T13:04:03;12.82;;;2.88;;
52186;SDS011;38161;53.020;6.598;2023-12-29T13:06:31;12.65;;;3.13;;
52186;SDS011;38161;53.020;6.598;2023-12-29T13:08:58;10.50;;;2.42;;
52186;SDS011;38161;53.020;6.598;2023-12-29T13:11:26;9.60;;;2.17;;
52186;SDS011;38161;53.020;6.598;2023-12-29T13:13:52;13.75;;;2.85;;
52186;SDS011;38161;53.020;6.598;2023-12-29T13:16:29;11.38;;;2.60;;
52186;SDS011;38161;53.020;6.598;2023-12-29T13:19:19;11.43;;;2.60;;
52186;SDS011;38161;53.020;6.598;2023-12-29T13:21:54;9.15;;;2.17;;
52186;SDS011;38161;53.020;6.598;2023-12-29T13:24:20;10.38;;;2.45;;
52186;SDS011;38161;53.020;6.598;2023-12-29T13:26:47;11.43;;;3.20;;
52186;SDS011;38161;53.020;6.598;2023-12-29T13:29:21;20.50;;;2.55;;
52186;SDS011;38161;53.020;6.598;2023-12-29T13:31:50;14.25;;;2.70;;
52186;SDS011;38161;53.020;6.598;2023-12-29T13:34:28;14.32;;;2.45;;
52186;SDS011;38161;53.020;6.598;2023-12-29T13:37:08;9.23;;;2.10;;
52186;SDS011;38161;53.020;6.598;2023-12-29T13:39:45;15.15;;;2.85;;
52186;SDS011;38161;53.020;6.598;2023-12-29T13:42:27;11.45;;;2.28;;
52186;SDS011;38161;53.020;6.598;2023-12-29T13:44:56;12.88;;;1.90;;
52186;SDS011;38161;53.020;6.598;2023-12-29T13:47:24;12.80;;;2.75;;
52186;SDS011;38161;53.020;6.598;2023-12-29T13:49:50;14.95;;;3.28;;
52186;SDS011;38161;53.020;6.598;2023-12-29T13:52:17;12.93;;;2.60;;
52186;SDS011;38161;53.020;6.598;2023-12-29T13:54:44;8.88;;;2.47;;
52186;SDS011;38161;53.020;6.598;2023-12-29T13:57:10;13.73;;;2.50;;
52186;SDS011;38161;53.020;6.598;2023-12-29T13:59:36;11.77;;;2.50;;
52186;SDS011;38161;53.020;6.598;2023-12-29T14:07:51;10.52;;;2.22;;
52186;SDS011;38161;53.020;6.598;2023-12-29T14:10:28;15.88;;;2.55;;
52186;SDS011;38161;53.020;6.598;2023-12-29T14:15:37;13.23;;;2.53;;
52186;SDS011;38161;53.020;6.598;2023-12-29T14:20:38;14.18;;;3.05;;
52186;SDS011;38161;53.020;6.598;2023-12-29T14:23:06;14.82;;;2.67;;
52186;SDS011;38161;53.020;6.598;2023-12-29T14:25:35;8.35;;;2.70;;
52186;SDS011;38161;53.020;6.598;2023-12-29T14:28:02;15.20;;;4.28;;
52186;SDS011;38161;53.020;6.598;2023-12-29T14:30:29;11.93;;;2.65;;
52186;SDS011;38161;53.020;6.598;2023-12-29T14:32:59;15.45;;;3.25;;
52186;SDS011;38161;53.020;6.598;2023-12-29T14:35:25;11.85;;;2.40;;
52186;SDS011;38161;53.020;6.598;2023-12-29T14:37:51;12.37;;;2.50;;
52186;SDS011;38161;53.020;6.598;2023-12-29T14:40:17;11.37;;;2.43;;
52186;SDS011;38161;53.020;6.598;2023-12-29T14:42:43;12.47;;;2.70;;
52186;SDS011;38161;53.020;6.598;2023-12-29T14:45:09;9.48;;;2.53;;
52186;SDS011;38161;53.020;6.598;2023-12-29T14:47:35;10.98;;;2.70;;
52186;SDS011;38161;53.020;6.598;2023-12-29T14:50:01;10.15;;;2.22;;
52186;SDS011;38161;53.020;6.598;2023-12-29T14:52:27;13.57;;;2.90;;
52186;SDS011;38161;53.020;6.598;2023-12-29T14:54:53;12.98;;;2.92;;
52186;SDS011;38161;53.020;6.598;2023-12-29T14:57:19;17.93;;;2.90;;
52186;SDS011;38161;53.020;6.598;2023-12-29T14:59:44;11.15;;;2.55;;
52186;SDS011;38161;53.020;6.598;2023-12-29T15:02:10;10.20;;;2.80;;
52186;SDS011;38161;53.020;6.598;2023-12-29T15:04:36;12.45;;;2.40;;
52186;SDS011;38161;53.020;6.598;2023-12-29T15:07:02;13.03;;;2.43;;
52186;SDS011;38161;53.020;6.598;2023-12-29T15:11:55;8.32;;;2.20;;
52186;SDS011;38161;53.020;6.598;2023-12-29T15:16:47;9.85;;;2.50;;
52186;SDS011;38161;53.020;6.598;2023-12-29T15:19:13;10.48;;;2.33;;
52186;SDS011;38161;53.020;6.598;2023-12-29T15:21:39;15.63;;;3.15;;
52186;SDS011;38161;53.020;6.598;2023-12-29T15:24:05;12.63;;;2.40;;
52186;SDS011;38161;53.020;6.598;2023-12-29T15:26:30;13.82;;;2.67;;
52186;SDS011;38161;53.020;6.598;2023-12-29T15:28:56;7.78;;;2.05;;
52186;SDS011;38161;53.020;6.598;2023-12-29T15:31:22;6.72;;;2.03;;
52186;SDS011;38161;53.020;6.598;2023-12-29T15:33:51;8.68;;;2.22;;
52186;SDS011;38161;53.020;6.598;2023-12-29T15:36:20;8.80;;;1.83;;
52186;SDS011;38161;53.020;6.598;2023-12-29T15:38:47;11.15;;;2.20;;
52186;SDS011;38161;53.020;6.598;2023-12-29T15:41:14;5.63;;;1.58;;
52186;SDS011;38161;53.020;6.598;2023-12-29T15:43:40;7.82;;;2.00;;